Swatara, MN

9:33 PM CDT on March 30, 2015 (GMT -0500)
McGregor | | Change Station
CLOSE
Current Station
Airport
Location: McGregor,
Elevation: 1227 ft
Nearby Weather Stations

Elev 1227 ft 46.62 °N, 93.31 °W | Updated 19 minutes ago

Overcast
Overcast
36 °F
Feels Like 36 °F
N
0
Wind Variable Wind from North

Today
High -- | Low -- °F
--% Chance of Precip.
Yesterday
High -- | Low -- °F
Precip. -- in
6:57 AM 7:40 PM
Waxing Gibbous, 83% visible
Pressure 29.88 in
Visibility 10.0 miles
Clouds Overcast 4800 ft
Dew Point 34 °F
Humidity 93%
Rainfall 0.40 in
Snow Depth Not available.
UV 0 out of 12
Pollen 3.90 out of 12
Air Quality Not available.
Flu Activity Not available.
METAR KHZX 310214Z AUTO 00000KT 10SM OVC048 02/01 A2988 RMK AO2

More Conditions Fewer Conditions

Pressure 29.88 in
Visibility 10.0 miles
Clouds Overcast 4800 ft
Dew Point 34 °F
Humidity 93%
Rainfall 0.40 in
Snow Depth Not available.
UV 0 out of 12
Pollen 3.90 out of 12
Air Quality Not available.
Flu Activity Not available.
METAR KHZX 310214Z AUTO 00000KT 10SM OVC048 02/01 A2988 RMK AO2

More Conditions Fewer Conditions

10-Day Weather Forecast

Almanac

Astronomy

Mar. 30, 2015 Rise Set
Actual Time
Civil Twilight
Nautical Twilight
Astronomical Twilight
Moon
Length of Visible Light
Length of Day
Tomorrow will be .
, % of the Moon is Illuminated

Today's Extremes

State Highs State Lows

Community

WunderPhotos

Upload Photos

1,809,676 photos uploaded!

WunderBlogs® & News

Nearby

Air Quality

  Air Quality AQ Index Pollutant
Not available.

Snow Depth

Station Depth Elevation

Earthquake Activity

City Distance Mag. Time & Date
Minimum magnitude displayed is 2.5.

Coastal Water Temperatures

Place Temperature

Stations

Nearby Weather Stations

Station Location Temp. Windchill Dew Point Humidity Wind Precip. Elev Updated Type